ENGM/OSL METAR and TAF weather

Enter ICAO airport designator
Station Type Date Time Source
ENGM METAR 2019/06/16 07:20 UTC NOAA

ENGM 160720Z VRB01KT CAVOK 16/11 Q1013 NOSIG


Station Type Date Time Source
ENGM Decoded METAR 2019/06/16 07:20 UTC NOAA

Oslo / Gardermoen, Norway (ENGM) 60-12N 011-05E 204M
Jun 16, 2019 - 03:20 AM EDT / 2019.06.16 0720 UTC
Wind: Variable at 1 MPH (1 KT):0
Visibility: greater than 7 mile(s):0
Temperature: 60 F (16 C)
Dew Point: 51 F (11 C)
Relative Humidity: 72%
Pressure (altimeter): 29.91 in. Hg (1013 hPa)
ob: ENGM 160720Z VRB01KT CAVOK 16/11 Q1013 NOSIG
cycle: 7

Station Type Date Time Source
ENGM TAF 2019/06/16 06:57 UTC NOAA

TAF ENGM 160500Z 1606/1706 15007KT 9999 FEW040 BKN080 PROB30
TEMPO 1611/1615 SHRA BKN020 FEW025CB
BECMG 1613/1615 21010KT BKN012
TEMPO 1617/1620 4000 -DZ BR BKN008
BECMG 1620/1622 FEW015 PROB30 1700/1705 0500 FG VV001

Example: see airport list